Terminal Aerodrome Forecast
Issued by NWS Boston, MA

Home | Current Version | Previous Version | Text Only | Print | Product List | Glossary On
Versions: 1 2 3 4 5 6 7 8 9 10 11 12 13 14 15 16 17 18 19 20
000
FTUS41 KBOX 260533
TAFORH
TAF
KORH 260533Z 2606/2706 28014KT P6SM SCT090
     FM260700 26009KT P6SM SCT110
     FM261800 28013KT P6SM VCSH BKN060
     FM270000 28009KT P6SM SCT250=

USA.gov is the U.S. government's official web portal to all federal, state and local government web resources and services.